Time;durP1;ratioP1;P1;durP2;ratioP2;P2;SDS_P1;SDS_P2;PMS_P1;PMS_P2;Temp;Humidity;BMP_temperature;BMP_pressure;BME280_temperature;BME280_humidity;BME280_pressure;Samples;Min_cycle;Max_cycle;Signal;HPM_P1;HPM_P2
2023/01/09 00:00:12;;;;;;;1.70;1.40;;;;;;;5.76;100.00;99405.25;4993430;28;20084;-96
2023/01/09 00:02:39;;;;;;;1.77;1.30;;;;;;;5.72;100.00;99416.53;5011227;28;20030;-94
2023/01/09 00:05:06;;;;;;;2.67;1.40;;;;;;;5.69;100.00;99419.16;5009751;28;20034;-94
2023/01/09 00:07:31;;;;;;;1.85;1.20;;;;;;;5.64;100.00;99412.47;5007867;28;20051;-95
2023/01/09 00:09:57;;;;;;;2.83;1.40;;;;;;;5.61;100.00;99413.38;4995080;28;20022;-93
2023/01/09 00:12:22;;;;;;;2.00;1.38;;;;;;;5.59;100.00;99411.75;4992831;28;20072;-94
2023/01/09 00:14:47;;;;;;;3.30;1.25;;;;;;;5.58;100.00;99405.78;5012277;28;20053;-95
2023/01/09 00:17:12;;;;;;;2.05;1.00;;;;;;;5.53;100.00;99405.03;4994547;28;20026;-93
2023/01/09 00:19:38;;;;;;;1.52;1.00;;;;;;;5.47;100.00;99410.34;5011344;28;20134;-94
2023/01/09 00:22:05;;;;;;;1.73;1.00;;;;;;;5.43;100.00;99422.44;4997498;28;20109;-94
2023/01/09 00:24:30;;;;;;;1.88;1.00;;;;;;;5.40;100.00;99426.78;5012777;28;20037;-94
2023/01/09 00:26:56;;;;;;;1.58;0.85;;;;;;;5.31;100.00;99429.59;4994278;28;20025;-95
2023/01/09 00:29:21;;;;;;;2.88;1.10;;;;;;;5.27;100.00;99433.97;4992644;28;20028;-86
2023/01/09 00:31:47;;;;;;;2.35;1.00;;;;;;;5.23;100.00;99426.38;5009649;28;20097;-86
2023/01/09 00:34:12;;;;;;;1.70;1.05;;;;;;;5.19;100.00;99425.59;5009714;28;20087;-86
2023/01/09 00:36:37;;;;;;;2.33;1.20;;;;;;;5.13;100.00;99428.31;4998476;28;20021;-86
2023/01/09 00:39:04;;;;;;;7.60;1.15;;;;;;;5.07;100.00;99421.63;5010479;28;20085;-86
2023/01/09 00:41:40;;;;;;;4.18;1.05;;;;;;;5.05;100.00;99432.81;4997730;28;20029;-87
2023/01/09 00:44:19;;;;;;;2.10;1.00;;;;;;;5.00;100.00;99424.34;5015236;28;20100;-86
2023/01/09 00:46:50;;;;;;;1.80;1.20;;;;;;;4.94;100.00;99419.38;5015184;28;20494;-87
2023/01/09 00:49:16;;;;;;;4.07;1.25;;;;;;;4.87;100.00;99418.69;5014167;28;20092;-86
2023/01/09 00:51:42;;;;;;;1.45;1.00;;;;;;;4.84;100.00;99429.03;5019637;28;20034;-86
2023/01/09 00:54:10;;;;;;;2.63;1.13;;;;;;;4.76;100.00;99425.78;5015191;28;20036;-86
2023/01/09 00:56:36;;;;;;;3.08;1.20;;;;;;;4.71;100.00;99432.72;5024775;28;20037;-86
2023/01/09 00:59:02;;;;;;;4.07;1.30;;;;;;;4.66;100.00;99440.53;5012972;28;20030;-86
2023/01/09 01:01:28;;;;;;;3.75;1.30;;;;;;;4.62;100.00;99436.38;4995719;28;20053;-86
2023/01/09 01:03:54;;;;;;;1.45;1.00;;;;;;;4.57;100.00;99445.88;5012421;28;20088;-87
2023/01/09 01:09:03;;;;;;;1.90;1.10;;;;;;;4.45;100.00;99435.88;5010417;28;20402;-86
2023/01/09 01:11:31;;;;;;;2.15;1.20;;;;;;;4.42;100.00;99448.78;5021605;28;20475;-86
2023/01/09 01:13:56;;;;;;;1.98;1.20;;;;;;;4.39;100.00;99448.84;5012584;28;20034;-87
2023/01/09 01:16:22;;;;;;;2.85;1.27;;;;;;;4.32;100.00;99455.81;5013043;28;20110;-86
2023/01/09 01:18:47;;;;;;;3.60;1.30;;;;;;;4.29;100.00;99447.34;4996305;28;20072;-86
2023/01/09 01:21:13;;;;;;;3.17;1.20;;;;;;;4.30;100.00;99451.59;5013331;28;20065;-86
2023/01/09 01:23:39;;;;;;;3.95;1.45;;;;;;;4.28;100.00;99438.81;5012471;28;20022;-86
2023/01/09 01:26:14;;;;;;;2.55;1.20;;;;;;;4.27;100.00;99457.66;5012793;28;20413;-87
2023/01/09 01:28:40;;;;;;;3.22;1.40;;;;;;;4.23;100.00;99458.56;4995400;28;20032;-86
2023/01/09 01:31:06;;;;;;;3.50;1.52;;;;;;;4.22;100.00;99467.16;5003888;28;20061;-87
2023/01/09 01:33:34;;;;;;;1.80;1.27;;;;;;;4.22;100.00;99459.47;5013611;28;20026;-86
2023/01/09 01:36:04;;;;;;;2.63;1.40;;;;;;;4.17;100.00;99466.38;4996363;28;20030;-86
2023/01/09 01:38:31;;;;;;;3.20;1.30;;;;;;;4.18;100.00;99467.22;4995139;28;20104;-93
2023/01/09 01:40:56;;;;;;;3.58;1.60;;;;;;;4.18;100.00;99467.22;5017698;28;20034;-93
2023/01/09 01:43:22;;;;;;;6.43;1.73;;;;;;;4.14;100.00;99466.47;4997082;28;20038;-93
2023/01/09 01:45:47;;;;;;;4.18;1.50;;;;;;;4.07;100.00;99458.91;4997516;28;20022;-94
2023/01/09 01:48:29;;;;;;;5.50;1.40;;;;;;;4.06;100.00;99457.22;4997079;28;20446;-93
2023/01/09 01:51:02;;;;;;;3.85;1.48;;;;;;;4.04;100.00;99459.81;4997195;28;20335;-93
2023/01/09 01:53:37;;;;;;;6.25;1.75;;;;;;;3.96;100.00;99456.53;5014583;28;20026;-93
2023/01/09 01:56:18;;;;;;;5.28;2.22;;;;;;;3.96;100.00;99462.53;4996557;28;20159;-93
2023/01/09 01:58:57;;;;;;;4.03;1.60;;;;;;;3.92;100.00;99463.47;5014604;28;20033;-93
2023/01/09 02:01:24;;;;;;;2.42;1.50;;;;;;;3.90;100.00;99467.75;4998685;28;20029;-93
2023/01/09 02:03:51;;;;;;;4.38;1.70;;;;;;;3.86;100.00;99468.72;5012943;28;20060;-93
2023/01/09 02:06:17;;;;;;;5.30;1.80;;;;;;;3.88;100.00;99476.38;4997310;28;20103;-92
2023/01/09 02:08:45;;;;;;;3.95;1.90;;;;;;;3.85;100.00;99472.13;5017972;28;20155;-86
2023/01/09 02:11:13;;;;;;;4.57;1.80;;;;;;;3.81;100.00;99469.69;5009538;28;20170;-86
2023/01/09 02:13:39;;;;;;;4.90;1.75;;;;;;;3.81;100.00;99467.97;4995448;28;20502;-86
2023/01/09 02:16:04;;;;;;;4.63;1.73;;;;;;;3.85;100.00;99473.84;5012624;28;20029;-86
2023/01/09 02:18:47;;;;;;;3.72;1.58;;;;;;;3.83;100.00;99484.13;5012661;28;20044;-85
2023/01/09 02:21:19;;;;;;;4.68;1.60;;;;;;;3.84;100.00;99477.28;5005161;28;20467;-86
2023/01/09 02:24:04;;;;;;;4.22;1.67;;;;;;;3.81;100.00;99467.13;5008798;28;20434;-86
2023/01/09 02:26:47;;;;;;;;;;;;;;;3.81;100.00;99472.22;4994785;28;20045;-86
2023/01/09 02:29:36;;;;;;;4.38;1.60;;;;;;;3.78;100.00;99473.13;4999701;28;19953;-86
2023/01/09 02:32:09;;;;;;;4.70;1.60;;;;;;;3.73;100.00;99468.97;5011728;28;20021;-86
2023/01/09 02:34:50;;;;;;;4.07;1.50;;;;;;;3.73;100.00;99487.75;4993852;28;20446;-86
2023/01/09 02:37:19;;;;;;;4.07;1.52;;;;;;;3.70;100.00;99474.97;5011698;28;20104;-86
2023/01/09 02:40:14;;;;;;;4.28;1.73;;;;;;;3.71;100.00;99478.38;5012116;28;20029;-92
2023/01/09 02:42:42;;;;;;;5.35;1.65;;;;;;;3.73;100.00;99486.91;5003308;28;20025;-93
2023/01/09 02:45:07;;;;;;;3.97;1.60;;;;;;;3.68;100.00;99476.75;5014369;28;20037;-94
2023/01/09 02:47:40;;;;;;;5.78;1.70;;;;;;;3.66;100.00;99470.78;4995325;28;20022;-93
2023/01/09 02:50:10;;;;;;;6.45;1.65;;;;;;;3.64;100.00;99475.09;4996417;28;20040;-94
2023/01/09 02:53:10;;;;;;;3.15;1.40;;;;;;;3.60;100.00;99470.06;4995455;28;20120;-93
2023/01/09 02:55:54;;;;;;;4.93;1.80;;;;;;;3.56;100.00;99479.50;5008674;28;20502;-93
2023/01/09 02:58:19;;;;;;;6.68;1.60;;;;;;;3.55;100.00;99470.97;5007321;28;20029;-93
2023/01/09 03:00:53;;;;;;;3.47;1.40;;;;;;;3.58;100.00;99470.94;5015909;28;20045;-94
2023/01/09 03:03:37;;;;;;;4.97;1.45;;;;;;;3.58;100.00;99470.06;4996934;28;20300;-93
2023/01/09 03:06:28;;;;;;;5.30;1.70;;;;;;;3.54;100.00;99468.44;5013001;28;20041;-93
2023/01/09 03:09:03;;;;;;;3.60;1.60;;;;;;;3.51;100.00;99453.13;5007102;28;20109;-86
2023/01/09 03:11:33;;;;;;;3.83;1.77;;;;;;;3.51;100.00;99456.53;5006666;28;20510;-86
2023/01/09 03:14:06;;;;;;;5.57;1.88;;;;;;;3.52;100.00;99459.94;5009455;28;20032;-86
2023/01/09 03:16:34;;;;;;;4.03;1.70;;;;;;;3.53;100.00;99459.91;4994227;28;20065;-86
2023/01/09 03:19:02;;;;;;;3.72;1.77;;;;;;;3.47;100.00;99464.31;5009058;28;20036;-86
2023/01/09 03:21:29;;;;;;;5.53;1.85;;;;;;;3.47;100.00;99456.63;5011597;28;20104;-86
2023/01/09 03:23:58;;;;;;;5.18;2.28;;;;;;;3.41;100.00;99457.53;5010894;28;20080;-86
2023/01/09 03:26:24;;;;;;;4.43;1.80;;;;;;;3.39;100.00;99461.03;5012352;28;20042;-87
2023/01/09 03:28:51;;;;;;;6.07;2.30;;;;;;;3.39;100.00;99466.16;5010762;28;20030;-86
2023/01/09 03:31:16;;;;;;;8.65;2.30;;;;;;;3.40;100.00;99466.13;4993951;28;20025;-86
2023/01/09 03:33:43;;;;;;;5.10;1.77;;;;;;;3.37;100.00;99466.16;5012175;28;20446;-86
2023/01/09 03:36:10;;;;;;;4.53;1.98;;;;;;;3.38;100.00;99469.56;4993915;28;20026;-86
2023/01/09 03:38:36;;;;;;;7.97;2.30;;;;;;;3.34;100.00;99471.34;5010051;28;20487;-86
2023/01/09 03:41:02;;;;;;;7.90;2.13;;;;;;;3.31;100.00;99470.53;4993417;28;20025;-86
2023/01/09 03:43:27;;;;;;;6.70;1.98;;;;;;;3.28;100.00;99466.31;5015259;28;20092;-86
2023/01/09 03:45:53;;;;;;;7.40;2.00;;;;;;;3.32;100.00;99464.56;4993180;28;20124;-86
2023/01/09 03:48:18;;;;;;;8.32;2.53;;;;;;;3.28;100.00;99466.31;4993317;28;20064;-86
2023/01/09 03:50:46;;;;;;;6.70;2.10;;;;;;;3.24;100.00;99472.34;4992542;28;20109;-86
2023/01/09 03:53:12;;;;;;;8.43;2.30;;;;;;;3.25;100.00;99468.09;5010959;28;20046;-86
2023/01/09 03:55:58;;;;;;;7.15;2.38;;;;;;;3.24;100.00;99479.19;4992559;28;20029;-86
2023/01/09 03:58:24;;;;;;;7.95;2.45;;;;;;;3.24;100.00;99474.06;4988964;28;20176;-86
2023/01/09 04:00:51;;;;;;;9.48;2.53;;;;;;;3.29;100.00;99473.13;5011941;28;20036;-86
2023/01/09 04:03:18;;;;;;;9.13;2.75;;;;;;;3.39;100.00;99468.72;4993229;28;20021;-86
2023/01/09 04:05:45;;;;;;;10.40;3.30;;;;;;;3.44;100.00;99462.63;5009382;28;20029;-86
2023/01/09 04:08:10;;;;;;;10.05;3.00;;;;;;;3.48;100.00;99468.56;5008280;28;20109;-86
2023/01/09 04:10:36;;;;;;;9.60;3.20;;;;;;;3.52;100.00;99458.22;4991532;28;20116;-86
2023/01/09 04:13:01;;;;;;;11.00;3.22;;;;;;;3.54;100.00;99458.22;4991117;28;20084;-86
2023/01/09 04:15:26;;;;;;;9.13;3.33;;;;;;;3.57;100.00;99468.38;5010112;28;20030;-86
2023/01/09 04:17:52;;;;;;;13.43;3.50;;;;;;;3.53;100.00;99469.31;5009094;28;20056;-86
2023/01/09 04:20:17;;;;;;;9.45;3.47;;;;;;;3.51;100.00;99469.34;5011431;28;20483;-86
2023/01/09 04:22:43;;;;;;;10.93;3.53;;;;;;;3.48;100.00;99466.81;4992339;28;20496;-86
2023/01/09 04:25:09;;;;;;;10.13;3.40;;;;;;;3.49;100.00;99472.78;5009683;28;20025;-86
2023/01/09 04:27:34;;;;;;;9.27;3.33;;;;;;;3.48;100.00;99469.38;5013726;28;20037;-86
2023/01/09 04:30:00;;;;;;;11.32;3.13;;;;;;;3.53;100.00;99462.47;5003770;28;20029;-86
2023/01/09 04:32:26;;;;;;;6.93;2.72;;;;;;;3.52;100.00;99460.78;5008192;28;20026;-86
2023/01/09 04:34:52;;;;;;;8.05;2.40;;;;;;;3.53;100.00;99462.47;5010844;28;20026;-86
2023/01/09 04:37:17;;;;;;;7.40;2.50;;;;;;;3.63;100.00;99452.91;5009615;28;20092;-86
2023/01/09 04:39:43;;;;;;;7.20;2.28;;;;;;;3.75;100.00;99464.66;4992355;28;20026;-86
2023/01/09 04:42:09;;;;;;;7.68;2.45;;;;;;;3.85;100.00;99471.28;5010093;28;20033;-86
2023/01/09 04:44:35;;;;;;;7.13;2.33;;;;;;;3.93;100.00;99472.84;5009047;28;20387;-87
2023/01/09 04:47:00;;;;;;;6.75;2.35;;;;;;;4.03;100.00;99467.53;5009887;28;20029;-86
2023/01/09 04:49:25;;;;;;;7.60;2.30;;;;;;;4.14;100.00;99470.75;5009525;28;20030;-87
2023/01/09 04:51:51;;;;;;;8.43;2.15;;;;;;;4.21;100.00;99464.63;4991338;28;20032;-86
2023/01/09 04:54:16;;;;;;;6.97;2.38;;;;;;;4.24;100.00;99464.53;5024840;28;20055;-87
2023/01/09 04:56:42;;;;;;;8.02;2.38;;;;;;;4.33;100.00;99466.94;4991014;28;20030;-86
2023/01/09 04:59:08;;;;;;;7.65;2.00;;;;;;;4.41;100.00;99464.22;5010840;28;20442;-86
2023/01/09 05:01:34;;;;;;;6.43;2.03;;;;;;;4.44;100.00;99470.09;4992687;28;20034;-86
2023/01/09 05:04:00;;;;;;;7.43;2.20;;;;;;;4.48;100.00;99466.63;4993097;28;20392;-86
2023/01/09 05:06:25;;;;;;;7.40;2.30;;;;;;;4.52;100.00;99472.50;5007643;28;20030;-86
2023/01/09 05:08:51;;;;;;;7.00;2.20;;;;;;;4.55;100.00;99465.59;5006274;28;20080;-86
2023/01/09 05:11:16;;;;;;;5.70;2.08;;;;;;;4.61;100.00;99462.91;4992248;28;20022;-86
2023/01/09 05:13:42;;;;;;;8.68;2.15;;;;;;;4.67;100.00;99469.63;5010229;28;20040;-86
2023/01/09 05:16:08;;;;;;;8.93;2.30;;;;;;;4.66;100.00;99461.06;4993650;28;20375;-86
2023/01/09 05:18:33;;;;;;;5.00;2.15;;;;;;;4.71;100.00;99455.84;5010217;28;20505;-86
2023/01/09 05:20:58;;;;;;;7.35;2.08;;;;;;;4.79;100.00;99479.63;5009306;28;20022;-86
2023/01/09 05:23:24;;;;;;;7.43;2.20;;;;;;;4.82;100.00;99476.16;5009372;28;20022;-87
2023/01/09 05:25:49;;;;;;;6.00;2.30;;;;;;;4.86;100.00;99467.47;4991626;28;20022;-86
2023/01/09 05:28:15;;;;;;;6.65;1.83;;;;;;;4.90;100.00;99469.13;4995453;28;20022;-87
2023/01/09 05:30:40;;;;;;;3.85;2.00;;;;;;;4.92;100.00;99467.34;5013927;28;20184;-86
2023/01/09 05:33:06;;;;;;;5.70;1.85;;;;;;;4.92;100.00;99463.06;5014558;28;20057;-86
2023/01/09 05:35:31;;;;;;;7.85;2.08;;;;;;;4.98;100.00;99467.22;5013399;28;20021;-86
2023/01/09 05:37:57;;;;;;;7.07;2.15;;;;;;;5.02;100.00;99471.41;4995106;28;20399;-86
2023/01/09 05:40:22;;;;;;;9.02;2.20;;;;;;;5.04;100.00;99467.09;4995067;28;20029;-87
2023/01/09 05:42:47;;;;;;;5.47;1.83;;;;;;;5.05;100.00;99459.31;5013208;28;20479;-86
2023/01/09 05:45:13;;;;;;;7.10;2.00;;;;;;;5.09;100.00;99462.66;4995342;28;20018;-86
2023/01/09 05:47:38;;;;;;;2.97;1.80;;;;;;;5.11;100.00;99459.19;4996172;28;20088;-86
2023/01/09 05:50:04;;;;;;;7.43;2.00;;;;;;;5.13;100.00;99456.56;4995874;28;20071;-86
2023/01/09 05:52:29;;;;;;;6.50;1.73;;;;;;;5.14;100.00;99458.25;5014381;28;20041;-86
2023/01/09 05:54:55;;;;;;;7.65;1.95;;;;;;;5.15;100.00;99450.53;5026033;28;20041;-86
2023/01/09 05:57:21;;;;;;;8.02;1.88;;;;;;;5.19;100.00;99451.28;4994841;28;20025;-86
2023/01/09 05:59:46;;;;;;;11.20;2.83;;;;;;;5.23;100.00;99452.06;4995798;28;20601;-86
2023/01/09 06:02:11;;;;;;;6.15;1.60;;;;;;;5.25;100.00;99446.03;4994933;28;20036;-86
2023/01/09 06:04:36;;;;;;;5.00;1.60;;;;;;;5.28;100.00;99456.22;5014214;28;20038;-86
2023/01/09 06:07:02;;;;;;;3.53;1.70;;;;;;;5.31;100.00;99445.88;5011186;28;20073;-86
2023/01/09 06:09:27;;;;;;;8.10;1.83;;;;;;;5.30;100.00;99439.03;5009952;28;20398;-84
2023/01/09 06:11:53;;;;;;;7.35;1.73;;;;;;;5.34;100.00;99443.22;5013292;28;20034;-86
2023/01/09 06:14:19;;;;;;;6.47;1.60;;;;;;;5.38;100.00;99444.84;5010240;28;20057;-86
2023/01/09 06:16:44;;;;;;;6.65;1.83;;;;;;;5.38;100.00;99449.13;4994851;28;20076;-86
2023/01/09 06:19:10;;;;;;;9.25;1.70;;;;;;;5.37;100.00;99443.16;4995213;28;20486;-86
2023/01/09 06:21:35;;;;;;;6.38;1.73;;;;;;;5.37;100.00;99450.00;4995301;28;20490;-86
2023/01/09 06:24:00;;;;;;;9.48;1.70;;;;;;;5.37;100.00;99448.28;5013129;28;20041;-86
2023/01/09 06:26:26;;;;;;;8.57;2.20;;;;;;;5.37;100.00;99442.28;4991998;28;20223;-86
2023/01/09 06:28:54;;;;;;;6.85;2.03;;;;;;;5.37;100.00;99443.16;5011743;28;20410;-86
2023/01/09 06:31:23;;;;;;;9.27;1.70;;;;;;;5.35;100.00;99429.47;4991540;28;20038;-86
2023/01/09 06:33:48;;;;;;;7.38;1.85;;;;;;;5.37;100.00;99448.28;5010682;28;20057;-86
2023/01/09 06:36:14;;;;;;;8.85;1.90;;;;;;;5.38;100.00;99436.28;5011378;28;20068;-87
2023/01/09 06:38:39;;;;;;;6.05;1.70;;;;;;;5.39;100.00;99435.41;5020854;28;20033;-86
2023/01/09 06:41:05;;;;;;;6.20;1.88;;;;;;;5.39;100.00;99431.09;5000029;28;20097;-87
2023/01/09 06:43:30;;;;;;;9.90;1.80;;;;;;;5.39;100.00;99441.34;5011481;28;20450;-87
2023/01/09 06:45:56;;;;;;;7.53;2.03;;;;;;;5.41;100.00;99447.31;4993077;28;20049;-86
2023/01/09 06:48:23;;;;;;;8.45;1.85;;;;;;;5.40;100.00;99434.50;5013043;28;20036;-86
2023/01/09 06:50:49;;;;;;;7.07;1.98;;;;;;;5.43;100.00;99449.84;4995004;28;20463;-86
2023/01/09 06:53:15;;;;;;;9.57;1.80;;;;;;;5.45;100.00;99448.94;5011509;28;20033;-86
2023/01/09 06:55:40;;;;;;;9.98;2.13;;;;;;;5.49;100.00;99445.41;5011921;28;20096;-87
2023/01/09 06:58:05;;;;;;;7.95;2.20;;;;;;;5.50;100.00;99434.25;4993815;28;20121;-86
2023/01/09 07:00:31;;;;;;;14.95;2.90;;;;;;;5.54;100.00;99448.69;5012247;28;20150;-86
2023/01/09 07:02:56;;;;;;;7.35;2.00;;;;;;;5.57;100.00;99453.75;4992289;28;20037;-86
2023/01/09 07:05:22;;;;;;;10.63;2.17;;;;;;;5.60;100.00;99457.09;5011212;28;20573;-87
2023/01/09 07:07:47;;;;;;;10.35;2.10;;;;;;;5.65;100.00;99451.00;5009027;28;20037;-86
2023/01/09 07:10:13;;;;;;;12.48;2.15;;;;;;;5.66;100.00;99447.53;4990282;28;20032;-87
2023/01/09 07:12:38;;;;;;;9.27;2.08;;;;;;;5.69;100.00;99454.31;4992732;28;20033;-87
2023/01/09 07:15:04;;;;;;;9.52;1.90;;;;;;;5.68;100.00;99450.91;5010657;28;20530;-87
2023/01/09 07:17:31;;;;;;;7.93;1.95;;;;;;;5.69;100.00;99455.16;5009474;28;20084;-87
2023/01/09 07:19:57;;;;;;;9.15;2.30;;;;;;;5.64;100.00;99448.47;5012043;28;20026;-87
2023/01/09 07:22:22;;;;;;;11.80;2.13;;;;;;;5.66;100.00;99457.81;5013954;28;20032;-87
2023/01/09 07:24:47;;;;;;;7.78;2.08;;;;;;;5.66;100.00;99456.97;5011657;28;20089;-88
2023/01/09 07:27:12;;;;;;;11.70;2.33;;;;;;;5.66;100.00;99465.53;4992715;28;20066;-88
2023/01/09 07:29:38;;;;;;;8.65;1.90;;;;;;;5.64;100.00;99467.28;4999349;28;20030;-87
2023/01/09 07:32:03;;;;;;;10.32;2.38;;;;;;;5.72;100.00;99469.66;5011397;28;20049;-87
2023/01/09 07:34:29;;;;;;;4.93;1.63;;;;;;;5.70;100.00;99479.13;4993033;28;20104;-87
2023/01/09 07:36:54;;;;;;;8.40;1.85;;;;;;;5.68;100.00;99478.31;5003562;28;20329;-86
2023/01/09 07:39:20;;;;;;;9.05;2.17;;;;;;;5.74;100.00;99491.88;4986125;28;20034;-87
2023/01/09 07:41:45;;;;;;;7.32;1.95;;;;;;;5.73;100.00;99497.88;5003371;28;20100;-87
2023/01/09 07:44:11;;;;;;;7.65;2.03;;;;;;;5.72;100.00;99483.38;5011303;28;20042;-88
2023/01/09 07:46:37;;;;;;;7.90;2.20;;;;;;;5.74;100.00;99491.03;5011854;28;20033;-87
2023/01/09 07:49:02;;;;;;;6.05;2.05;;;;;;;5.71;100.00;99498.81;5012062;28;20018;-87
2023/01/09 07:51:28;;;;;;;7.85;2.30;;;;;;;5.72;100.00;99503.94;5008988;28;20044;-88
2023/01/09 07:53:53;;;;;;;8.82;2.40;;;;;;;5.70;100.00;99497.13;4993738;28;20022;-88
2023/01/09 07:56:18;;;;;;;5.63;2.22;;;;;;;5.71;100.00;99507.38;5008787;28;20537;-88
2023/01/09 07:58:44;;;;;;;9.15;2.58;;;;;;;5.71;100.00;99512.53;5008466;28;20068;-88
2023/01/09 08:01:09;;;;;;;6.20;2.00;;;;;;;5.69;100.00;99504.00;5008522;28;20108;-88
2023/01/09 08:03:35;;;;;;;6.18;1.98;;;;;;;5.75;100.00;99519.25;4991261;28;20110;-88
2023/01/09 08:06:00;;;;;;;7.88;2.08;;;;;;;5.70;100.00;99522.84;5009540;28;20372;-88
2023/01/09 08:08:25;;;;;;;8.10;2.40;;;;;;;5.70;100.00;99525.41;5008866;28;20354;-88
2023/01/09 08:10:51;;;;;;;9.43;2.42;;;;;;;5.67;100.00;99533.19;5006316;28;20029;-87
2023/01/09 08:13:16;;;;;;;12.20;2.78;;;;;;;5.65;100.00;99533.25;4990951;28;20049;-87
2023/01/09 08:15:41;;;;;;;7.00;2.58;;;;;;;5.65;100.00;99534.97;5011196;28;20105;-87
2023/01/09 08:18:07;;;;;;;9.02;2.33;;;;;;;5.66;100.00;99539.25;4992139;28;20026;-86
2023/01/09 08:20:32;;;;;;;9.48;2.47;;;;;;;5.68;100.00;99540.88;5007477;28;20030;-87
2023/01/09 08:22:57;;;;;;;7.97;2.50;;;;;;;5.72;100.00;99555.34;5008998;28;20465;-87
2023/01/09 08:25:23;;;;;;;9.40;2.60;;;;;;;5.76;100.00;99562.09;4989511;28;20076;-87
2023/01/09 08:27:49;;;;;;;6.40;2.53;;;;;;;5.80;100.00;99568.84;4992403;28;20040;-87
2023/01/09 08:30:15;;;;;;;11.77;2.70;;;;;;;5.82;100.00;99576.53;4994003;28;20105;-87
2023/01/09 08:32:41;;;;;;;5.53;2.20;;;;;;;5.85;100.00;99576.47;4991699;28;20400;-87
2023/01/09 08:35:07;;;;;;;8.55;2.72;;;;;;;5.86;100.00;99584.13;4992503;28;20091;-88
2023/01/09 08:37:33;;;;;;;10.20;3.00;;;;;;;5.87;100.00;99579.81;5008022;28;20640;-87
2023/01/09 08:39:58;;;;;;;9.02;3.20;;;;;;;5.90;100.00;99592.63;5007982;28;20088;-86
2023/01/09 08:47:54;;;;;;;11.75;2.95;;;;;;;6.12;100.00;99593.78;5017292;28;20055;-87
2023/01/09 08:50:19;;;;;;;9.85;3.10;;;;;;;6.29;100.00;99598.50;5016122;28;20026;-87
2023/01/09 08:52:44;;;;;;;10.27;3.05;;;;;;;6.42;100.00;99607.56;4996198;28;20057;-87
2023/01/09 08:55:10;;;;;;;8.52;3.03;;;;;;;6.46;100.00;99622.06;5013025;28;20054;-87
2023/01/09 08:57:35;;;;;;;9.75;3.15;;;;;;;6.43;100.00;99614.41;5014781;28;20030;-87
2023/01/09 09:00:01;;;;;;;13.00;3.28;;;;;;;6.45;100.00;99630.66;5008514;28;20029;-87
2023/01/09 09:02:26;;;;;;;12.02;3.10;;;;;;;6.46;100.00;99632.38;5007676;28;20068;-87
2023/01/09 09:04:51;;;;;;;9.20;3.15;;;;;;;6.52;100.00;99644.22;5014470;28;20505;-87
2023/01/09 09:07:25;;;;;;;7.25;3.45;;;;;;;6.50;100.00;99646.81;5014229;28;20064;-88
2023/01/09 09:09:51;;;;;;;7.70;3.30;;;;;;;6.51;100.00;99645.94;5013136;28;20022;-87
2023/01/09 09:12:16;;;;;;;12.20;3.28;;;;;;;6.49;100.00;99644.28;4994273;28;20462;-87
2023/01/09 09:17:27;;;;;;;11.52;3.58;;;;;;;6.54;100.00;99661.31;5013331;28;20103;-87
2023/01/09 09:19:53;;;;;;;11.07;3.90;;;;;;;6.59;100.00;99659.47;5012986;28;20025;-87
2023/01/09 09:22:18;;;;;;;7.53;3.42;;;;;;;6.60;100.00;99666.31;5013852;28;20033;-88
2023/01/09 09:24:43;;;;;;;8.88;3.55;;;;;;;6.60;100.00;99668.03;4996633;28;20556;-88
2023/01/09 09:27:09;;;;;;;8.32;3.85;;;;;;;6.64;100.00;99667.06;5013032;28;20029;-88
2023/01/09 09:29:34;;;;;;;10.10;4.00;;;;;;;6.74;100.00;99678.81;5010508;28;20029;-87
2023/01/09 09:31:59;;;;;;;8.98;3.85;;;;;;;6.84;100.00;99687.13;5012031;28;20072;-87
2023/01/09 09:34:25;;;;;;;9.57;3.90;;;;;;;6.87;100.00;99681.91;5013016;28;20576;-88
2023/01/09 09:36:50;;;;;;;9.75;4.22;;;;;;;6.92;100.00;99691.19;5013532;28;20490;-88
2023/01/09 09:39:15;;;;;;;13.18;4.20;;;;;;;6.96;100.00;99697.94;4992263;28;20029;-88
2023/01/09 09:45:10;;;;;;;11.65;4.10;;;;;;;6.99;100.00;99715.88;5011023;28;20032;-87
2023/01/09 09:47:57;;;;;;;7.80;4.13;;;;;;;6.97;100.00;99724.53;4995472;28;20037;-87
2023/01/09 09:50:33;;;;;;;14.40;4.65;;;;;;;6.91;100.00;99714.41;5004572;28;20025;-87
2023/01/09 09:53:11;;;;;;;11.77;4.50;;;;;;;6.94;100.00;99716.91;4995876;28;20041;-87
2023/01/09 09:55:39;;;;;;;10.38;3.70;;;;;;;6.81;100.00;99716.41;5013150;28;20025;-87
2023/01/09 09:58:14;;;;;;;9.73;3.88;;;;;;;6.78;100.00;99731.91;4995559;28;20036;-87
2023/01/09 10:00:40;;;;;;;14.00;4.10;;;;;;;6.69;100.00;99732.16;4993012;28;20022;-88
2023/01/09 10:03:11;;;;;;;11.43;4.10;;;;;;;6.66;100.00;99740.81;5007062;28;20033;-87
2023/01/09 10:05:41;;;;;;;13.88;4.32;;;;;;;6.70;100.00;99752.72;5013426;28;20042;-88
2023/01/09 10:08:32;;;;;;;10.95;4.00;;;;;;;6.73;100.00;99764.69;5010505;28;20156;-88
2023/01/09 10:10:57;;;;;;;11.02;4.43;;;;;;;6.71;100.00;99754.41;5012559;28;20030;-87
2023/01/09 10:16:27;;;;;;;11.35;4.28;;;;;;;6.85;100.00;99768.66;5015047;28;20100;-87
2023/01/09 10:19:11;;;;;;;13.13;4.57;;;;;;;6.85;100.00;99776.38;5012845;28;20054;-88
2023/01/09 10:21:59;;;;;;;11.25;4.78;;;;;;;6.93;100.00;99777.88;4995160;28;20096;-87
2023/01/09 10:24:40;;;;;;;12.18;4.70;;;;;;;6.99;100.00;99779.44;5009281;28;20086;-87
2023/01/09 10:27:21;;;;;;;12.88;4.55;;;;;;;7.05;100.00;99776.72;5010811;28;20026;-87
2023/01/09 10:30:07;;;;;;;12.93;5.07;;;;;;;7.07;100.00;99780.94;5009218;28;20025;-87
2023/01/09 10:32:49;;;;;;;11.68;4.78;;;;;;;7.13;100.00;99790.25;4994594;28;20026;-87
2023/01/09 10:35:32;;;;;;;9.82;4.32;;;;;;;7.12;100.00;99786.81;5012820;28;20391;-87
2023/01/09 10:38:01;;;;;;;12.57;4.95;;;;;;;7.00;100.00;99794.03;5014341;28;20471;-88
2023/01/09 10:40:34;;;;;;;13.73;5.43;;;;;;;6.97;100.00;99809.56;4995887;28;20061;-88
2023/01/09 10:43:06;;;;;;;11.52;4.82;;;;;;;6.97;100.00;99804.41;4989961;28;20040;-88
2023/01/09 10:45:45;;;;;;;10.35;4.53;;;;;;;6.99;100.00;99800.06;5010256;28;20034;-87
2023/01/09 10:48:20;;;;;;;12.63;4.50;;;;;;;7.00;100.00;99806.91;5011130;28;20029;-87
2023/01/09 10:50:48;;;;;;;10.60;3.97;;;;;;;7.09;100.00;99814.41;5013513;28;20021;-87
2023/01/09 10:53:24;;;;;;;12.60;4.70;;;;;;;7.18;100.00;99819.31;5012372;28;20486;-87
2023/01/09 10:55:54;;;;;;;9.15;3.97;;;;;;;7.34;100.00;99812.03;5011383;28;20593;-87
2023/01/09 10:58:21;;;;;;;8.77;4.57;;;;;;;7.49;100.00;99817.63;4994886;28;20398;-87
2023/01/09 11:00:49;;;;;;;14.55;5.05;;;;;;;7.56;100.00;99823.44;5011024;28;20556;-88
2023/01/09 11:03:17;;;;;;;10.20;4.57;;;;;;;7.53;100.00;99810.63;5012057;28;20032;-87
2023/01/09 11:05:48;;;;;;;12.98;4.75;;;;;;;7.58;100.00;99838.84;5012986;28;20026;-87
2023/01/09 11:08:24;;;;;;;9.68;4.45;;;;;;;7.60;100.00;99835.34;5010418;28;20057;-87
2023/01/09 11:10:52;;;;;;;13.90;5.10;;;;;;;7.61;100.00;99828.47;5006964;28;20406;-87
2023/01/09 11:13:28;;;;;;;12.40;4.70;;;;;;;7.64;100.00;99833.53;5007777;28;20029;-86
2023/01/09 11:16:20;;;;;;;13.80;5.60;;;;;;;7.54;100.00;99841.53;5013834;28;20112;-86
2023/01/09 11:18:52;;;;;;;13.23;5.65;;;;;;;7.51;100.00;99839.03;5005542;28;20140;-86
2023/01/09 11:21:26;;;;;;;11.15;4.75;;;;;;;7.48;100.00;99836.53;5010416;28;20039;-87
2023/01/09 11:23:52;;;;;;;11.57;5.35;;;;;;;7.51;100.00;99833.88;4992818;28;20491;-87
2023/01/09 11:26:27;;;;;;;14.60;5.22;;;;;;;7.67;100.00;99843.75;5012508;28;20029;-87
2023/01/09 11:29:10;;;;;;;13.10;5.60;;;;;;;7.75;100.00;99849.56;5013782;28;20105;-87
2023/01/09 11:31:36;;;;;;;13.07;5.22;;;;;;;7.74;100.00;99847.84;5015507;28;20434;-86
2023/01/09 11:34:02;;;;;;;12.35;5.32;;;;;;;7.71;100.00;99860.88;5016186;28;20033;-86
2023/01/09 11:36:29;;;;;;;14.02;5.70;;;;;;;7.65;100.00;99853.25;5010723;28;20029;-86
2023/01/09 11:38:56;;;;;;;16.20;6.15;;;;;;;7.61;100.00;99849.94;5009635;28;20029;-88
2023/01/09 11:41:33;;;;;;;16.02;5.78;;;;;;;7.54;100.00;99859.56;4993829;28;20029;-87
2023/01/09 11:43:59;;;;;;;16.98;5.95;;;;;;;7.48;100.00;99851.16;4993085;28;21391;-87
2023/01/09 11:46:29;;;;;;;15.05;6.28;;;;;;;7.42;100.00;99861.66;5011255;28;20078;-87
2023/01/09 11:48:56;;;;;;;10.77;5.63;;;;;;;7.42;100.00;99861.66;4993478;28;20060;-87
2023/01/09 11:51:25;;;;;;;15.73;6.07;;;;;;;7.42;100.00;99865.06;5011081;28;20091;-87
2023/01/09 11:54:09;;;;;;;12.77;5.82;;;;;;;7.40;100.00;99864.25;4988029;28;20068;-87